Mission, Canada
Current Conditions -  °F | °C
As of 5:00 PM on Saturday 22 Nov 2014 (Local Time) from CYXX Reporting Station
Broken Clouds Broken Clouds  
Wind Chill: 45°   Ceiling: 16000
Heat Index: 45°   Visibility: 10mi
Dew Point: 41°   Wind: 3mph
Humidity: 87%   Direction: 190°S
Pressure: 29.94"   Gusts: NA
Location:  49.13°N, 122.3°W
Report Text: CYXX 230100Z 19003KT 10SM SCT025 BKN160 BKN220 07/05 A2994 RMK SC3AC2CI1 SLP141
Loading
Personal Weather Stations






























Interactive Weather Map New forecast layout! Learn more

10-Day Weather Forecast

Advertisements
Track Severe Weather on mobile